Time;durP1;ratioP1;P1;durP2;ratioP2;P2;SDS_P1;SDS_P2;PMS_P1;PMS_P2;Temp;Humidity;BMP_temperature;BMP_pressure;BME280_temperature;BME280_humidity;BME280_pressure;Samples;Min_cycle;Max_cycle;Signal;HPM_P1;HPM_P2
2022/06/24 00:02:08;;;;;;;1.90;0.93;;;20.70;46.90;;;;;;5070024;28;20020;-81
2022/06/24 00:04:33;;;;;;;5.80;0.90;;;20.70;47.00;;;;;;5051787;28;20028;-81
2022/06/24 00:06:59;;;;;;;3.65;0.80;;;20.70;47.10;;;;;;5069527;28;20548;-81
2022/06/24 00:09:27;;;;;;;4.90;0.80;;;20.70;47.10;;;;;;5051683;28;20024;-79
2022/06/24 00:12:08;;;;;;;1.73;0.60;;;20.70;47.10;;;;;;5068538;28;20036;-83
2022/06/24 00:14:35;;;;;;;5.40;0.70;;;20.80;47.20;;;;;;5051144;28;20522;-80
2022/06/24 00:17:04;;;;;;;4.15;0.63;;;20.80;47.40;;;;;;5067892;28;20597;-80
2022/06/24 00:19:35;;;;;;;2.22;0.90;;;20.80;47.30;;;;;;5051576;28;20031;-79
2022/06/24 00:22:12;;;;;;;2.10;0.88;;;20.80;47.30;;;;;;5051002;28;20300;-80
2022/06/24 00:24:40;;;;;;;2.67;0.88;;;20.90;47.90;;;;;;5068655;28;20090;-79
2022/06/24 00:27:22;;;;;;;1.80;0.85;;;20.90;47.20;;;;;;5069698;28;20502;-79
2022/06/24 00:29:49;;;;;;;2.83;0.85;;;21.00;47.30;;;;;;5051361;28;20395;-80
2022/06/24 00:32:15;;;;;;;1.95;0.68;;;21.00;47.30;;;;;;5068965;28;20032;-79
2022/06/24 00:34:42;;;;;;;4.32;0.80;;;21.00;47.30;;;;;;5068522;28;20536;-80
2022/06/24 00:37:37;;;;;;;1.48;0.70;;;21.10;47.20;;;;;;5067633;28;20028;-79
2022/06/24 00:40:09;;;;;;;1.10;0.70;;;21.10;47.10;;;;;;5046934;28;20047;-80
2022/06/24 00:42:37;;;;;;;3.47;0.93;;;21.20;47.20;;;;;;5067794;28;20080;-80
2022/06/24 00:45:28;;;;;;;1.90;0.90;;;21.20;47.20;;;;;;5050671;28;20448;-79
2022/06/24 00:47:55;;;;;;;2.60;0.90;;;21.20;47.10;;;;;;5069356;28;20119;-80
2022/06/24 00:50:26;;;;;;;3.47;0.70;;;21.40;47.00;;;;;;5068766;28;20154;-80
2022/06/24 00:52:55;;;;;;;1.92;0.45;;;21.40;46.90;;;;;;5067788;28;20027;-80
2022/06/24 00:55:26;;;;;;;2.92;0.80;;;21.40;46.90;;;;;;5049310;28;20033;-79
2022/06/24 00:57:52;;;;;;;1.15;0.65;;;21.40;46.80;;;;;;5069059;28;20567;-80
2022/06/24 01:00:18;;;;;;;3.10;0.80;;;21.40;46.70;;;;;;5067539;28;20036;-80
2022/06/24 01:02:47;;;;;;;1.48;0.65;;;21.30;46.80;;;;;;5050562;28;20078;-80
2022/06/24 01:05:12;;;;;;;1.60;0.73;;;21.30;46.90;;;;;;5050344;28;20020;-80
2022/06/24 01:07:39;;;;;;;1.98;0.75;;;21.30;47.00;;;;;;5068679;28;20376;-80
2022/06/24 01:10:07;;;;;;;1.70;0.60;;;21.20;47.10;;;;;;5068188;28;20543;-80
2022/06/24 01:12:34;;;;;;;1.20;0.60;;;21.10;47.30;;;;;;5050211;28;20765;-79
2022/06/24 01:15:00;;;;;;;6.00;0.77;;;21.10;47.50;;;;;;5050487;28;20029;-80
2022/06/24 01:17:26;;;;;;;5.97;0.70;;;21.00;47.60;;;;;;5067975;28;20535;-79
2022/06/24 01:19:52;;;;;;;1.42;0.65;;;21.00;47.90;;;;;;5068068;28;20071;-81
2022/06/24 01:22:22;;;;;;;1.63;0.80;;;20.90;47.90;;;;;;5067212;28;20074;-80
2022/06/24 01:24:47;;;;;;;2.58;0.80;;;20.90;48.00;;;;;;5066531;28;20079;-80
2022/06/24 01:27:13;;;;;;;2.97;0.60;;;20.80;48.10;;;;;;5066893;28;20485;-80
2022/06/24 01:29:39;;;;;;;3.83;0.60;;;20.70;48.40;;;;;;5068491;28;20051;-79
2022/06/24 01:32:05;;;;;;;4.57;0.90;;;20.70;48.50;;;;;;5068044;28;20025;-81
2022/06/24 01:34:31;;;;;;;7.85;0.75;;;20.70;48.50;;;;;;5066487;28;20091;-79
2022/06/24 01:36:57;;;;;;;8.05;0.88;;;20.60;48.60;;;;;;5066192;28;20639;-80
2022/06/24 01:39:22;;;;;;;3.20;1.52;;;20.60;48.60;;;;;;5067817;28;20040;-80
2022/06/24 01:41:49;;;;;;;3.47;0.73;;;20.60;48.70;;;;;;5068103;28;20074;-80
2022/06/24 01:44:15;;;;;;;1.20;0.68;;;20.60;48.70;;;;;;5068112;28;20047;-79
2022/06/24 01:46:41;;;;;;;1.02;0.70;;;20.60;48.70;;;;;;5067434;28;20031;-81
2022/06/24 01:49:07;;;;;;;2.88;1.10;;;20.50;48.60;;;;;;5066095;28;20186;-80
2022/06/24 01:51:36;;;;;;;1.50;0.73;;;20.50;48.70;;;;;;5067643;28;20029;-80
2022/06/24 01:54:02;;;;;;;1.23;0.50;;;20.50;48.80;;;;;;5067710;28;20029;-79
2022/06/24 01:56:28;;;;;;;3.35;1.00;;;20.50;48.70;;;;;;5066367;28;20032;-80
2022/06/24 01:58:54;;;;;;;4.82;0.98;;;20.50;48.80;;;;;;5065777;28;20044;-80
2022/06/24 02:01:20;;;;;;;3.88;0.85;;;20.50;48.90;;;;;;5066015;28;20147;-80
2022/06/24 02:03:45;;;;;;;1.77;0.90;;;20.50;49.10;;;;;;5066047;28;20044;-80
2022/06/24 02:06:13;;;;;;;3.35;0.65;;;20.40;49.00;;;;;;5066469;28;20493;-81
2022/06/24 02:08:40;;;;;;;4.93;0.80;;;20.50;49.00;;;;;;5065808;28;20060;-80
2022/06/24 02:13:51;;;;;;;3.30;0.98;;;20.50;49.70;;;;;;5067833;28;20604;-80
2022/06/24 02:16:20;;;;;;;2.97;0.80;;;20.50;49.10;;;;;;5049743;28;20158;-81
2022/06/24 02:18:47;;;;;;;2.78;0.70;;;20.50;49.30;;;;;;5065687;28;20131;-80
2022/06/24 02:21:14;;;;;;;1.15;0.60;;;20.50;49.10;;;;;;5067121;28;20036;-80
2022/06/24 02:23:40;;;;;;;2.90;0.80;;;20.50;49.10;;;;;;5067211;28;20036;-81
2022/06/24 02:26:06;;;;;;;4.43;0.80;;;20.50;49.10;;;;;;5066702;28;20095;-80
2022/06/24 02:28:32;;;;;;;2.40;0.90;;;20.50;49.20;;;;;;5067120;28;20159;-80
2022/06/24 02:30:59;;;;;;;2.78;0.70;;;20.50;49.30;;;;;;5065586;28;20064;-81
2022/06/24 02:33:26;;;;;;;2.03;0.70;;;20.40;49.30;;;;;;5066787;28;20571;-81
2022/06/24 02:35:52;;;;;;;1.73;0.70;;;20.40;49.30;;;;;;5065016;28;20492;-80
2022/06/24 02:38:17;;;;;;;2.10;0.77;;;20.40;49.30;;;;;;5065344;28;20037;-79
2022/06/24 02:40:46;;;;;;;2.17;0.88;;;20.40;49.40;;;;;;5067006;28;20549;-80
2022/06/24 02:43:45;;;;;;;2.33;0.82;;;20.30;49.50;;;;;;5065374;28;20032;-81
2022/06/24 02:46:13;;;;;;;5.05;1.00;;;20.30;49.90;;;;;;5048050;28;20406;-80
2022/06/24 02:48:41;;;;;;;3.08;0.82;;;20.20;50.00;;;;;;5066632;28;20029;-80
2022/06/24 02:51:09;;;;;;;2.13;0.60;;;20.20;50.00;;;;;;5065292;28;20766;-80
2022/06/24 02:53:35;;;;;;;4.22;0.77;;;20.20;50.00;;;;;;5065326;28;20085;-79
2022/06/24 02:56:04;;;;;;;3.03;0.90;;;20.10;50.20;;;;;;5065148;28;20025;-80
2022/06/24 02:58:33;;;;;;;2.45;0.88;;;20.00;50.20;;;;;;5065404;28;20076;-80
2022/06/24 03:01:00;;;;;;;3.78;0.60;;;20.00;50.40;;;;;;5066974;28;20564;-79
2022/06/24 03:03:27;;;;;;;2.80;0.60;;;20.00;50.70;;;;;;5065141;28;20036;-80
2022/06/24 03:05:53;;;;;;;2.40;0.82;;;19.90;50.80;;;;;;5065221;28;20028;-79
2022/06/24 03:08:21;;;;;;;3.67;1.20;;;19.80;51.00;;;;;;5066957;28;20028;-80
2022/06/24 03:10:48;;;;;;;5.43;0.90;;;19.80;51.50;;;;;;5065701;28;20398;-80
2022/06/24 03:13:14;;;;;;;2.28;0.70;;;19.70;51.50;;;;;;5066468;28;20031;-81
2022/06/24 03:15:41;;;;;;;7.50;0.80;;;19.70;51.70;;;;;;5066581;28;20032;-81
2022/06/24 03:18:07;;;;;;;2.80;1.00;;;19.70;52.00;;;;;;5048520;28;20068;-80
2022/06/24 03:20:33;;;;;;;2.55;0.75;;;19.60;52.20;;;;;;5070882;28;20111;-80
2022/06/24 03:22:58;;;;;;;3.10;1.30;;;19.60;52.60;;;;;;5069265;28;20350;-81
2022/06/24 03:25:24;;;;;;;3.28;0.90;;;19.60;53.00;;;;;;5069346;28;20567;-81
2022/06/24 03:27:50;;;;;;;2.25;0.90;;;19.50;53.20;;;;;;5068893;28;20032;-79
2022/06/24 03:30:16;;;;;;;4.15;1.17;;;19.50;53.50;;;;;;5069475;28;20037;-81
2022/06/24 03:32:42;;;;;;;2.65;0.80;;;19.50;53.70;;;;;;5070173;28;20050;-80
2022/06/24 03:35:08;;;;;;;2.50;0.85;;;19.40;53.90;;;;;;5051742;28;20055;-79
2022/06/24 03:37:34;;;;;;;1.90;0.70;;;19.40;53.90;;;;;;5070659;28;20102;-80
2022/06/24 03:40:01;;;;;;;2.83;1.30;;;19.40;54.10;;;;;;5068725;28;20032;-81
2022/06/24 03:42:27;;;;;;;3.95;0.73;;;19.40;54.50;;;;;;5069023;28;20187;-81
2022/06/24 03:44:53;;;;;;;1.65;0.80;;;19.40;54.50;;;;;;5069989;28;20028;-80
2022/06/24 03:47:19;;;;;;;1.35;0.68;;;19.40;54.70;;;;;;5068581;28;20032;-80
2022/06/24 03:49:45;;;;;;;8.00;1.13;;;19.40;54.90;;;;;;5068859;28;20039;-80
2022/06/24 03:52:11;;;;;;;2.03;0.88;;;19.40;55.00;;;;;;5068660;28;20034;-80
2022/06/24 03:54:37;;;;;;;6.57;0.90;;;19.50;55.30;;;;;;5068381;28;20503;-80
2022/06/24 03:57:03;;;;;;;1.92;0.70;;;19.50;55.90;;;;;;5070200;28;20029;-80
2022/06/24 03:59:29;;;;;;;1.77;0.60;;;19.70;55.10;;;;;;5069970;28;20031;-81
2022/06/24 04:01:55;;;;;;;3.72;0.88;;;19.80;54.80;;;;;;5068445;28;20028;-81
2022/06/24 04:04:20;;;;;;;2.10;0.80;;;20.10;54.30;;;;;;5068261;28;20029;-80
2022/06/24 04:06:46;;;;;;;4.97;1.13;;;20.40;53.50;;;;;;5068058;28;20032;-81
2022/06/24 04:09:12;;;;;;;1.67;0.90;;;20.80;52.90;;;;;;5069796;28;20516;-80
2022/06/24 04:11:38;;;;;;;1.85;0.88;;;21.30;51.90;;;;;;5068605;28;20032;-81
2022/06/24 04:14:04;;;;;;;5.43;1.10;;;21.80;50.60;;;;;;5067991;28;20035;-82
2022/06/24 04:16:30;;;;;;;4.57;0.88;;;22.20;49.80;;;;;;5068559;28;20124;-80
2022/06/24 04:18:56;;;;;;;4.22;0.82;;;22.50;49.30;;;;;;5068706;28;20060;-81
2022/06/24 04:21:22;;;;;;;2.05;0.70;;;22.60;48.80;;;;;;5068991;28;20075;-81
2022/06/24 04:23:51;;;;;;;2.60;0.98;;;22.60;48.80;;;;;;5068144;28;20028;-80
2022/06/24 04:26:18;;;;;;;1.40;0.90;;;22.60;48.70;;;;;;5051450;28;20029;-81
2022/06/24 04:28:45;;;;;;;1.27;0.70;;;22.60;48.80;;;;;;5068161;28;20055;-80
2022/06/24 04:31:11;;;;;;;2.45;0.80;;;22.80;48.80;;;;;;5050708;28;20029;-80
2022/06/24 04:33:37;;;;;;;5.32;0.93;;;22.90;48.70;;;;;;5067647;28;20040;-81
2022/06/24 04:36:09;;;;;;;2.80;0.73;;;23.00;48.30;;;;;;5051099;28;20029;-80
2022/06/24 04:38:34;;;;;;;4.57;0.90;;;23.10;47.80;;;;;;5069173;28;20037;-79
2022/06/24 04:41:00;;;;;;;1.55;0.80;;;23.30;47.00;;;;;;5069185;28;20094;-82
2022/06/24 04:43:26;;;;;;;4.13;0.98;;;23.40;47.10;;;;;;5067855;28;20036;-80
2022/06/24 04:45:51;;;;;;;1.75;1.10;;;23.50;46.60;;;;;;5068688;28;20025;-79
2022/06/24 04:48:17;;;;;;;5.45;1.38;;;23.50;46.60;;;;;;5068824;28;20432;-79
2022/06/24 04:50:43;;;;;;;4.10;0.88;;;23.60;46.10;;;;;;5068594;28;20024;-80
2022/06/24 04:53:09;;;;;;;2.90;0.80;;;23.60;45.30;;;;;;5068667;28;20035;-80
2022/06/24 04:55:34;;;;;;;4.72;0.70;;;23.70;44.70;;;;;;5050700;28;20033;-80
2022/06/24 04:58:00;;;;;;;2.42;0.98;;;23.80;44.30;;;;;;5068774;28;20064;-80
2022/06/24 05:00:25;;;;;;;4.00;0.85;;;23.90;44.20;;;;;;5068383;28;20031;-80
2022/06/24 05:02:51;;;;;;;1.77;0.73;;;23.90;44.40;;;;;;5067189;28;20477;-80
2022/06/24 05:05:17;;;;;;;2.83;0.90;;;24.00;44.00;;;;;;5067082;28;20435;-80
2022/06/24 05:07:42;;;;;;;1.50;0.70;;;24.00;44.90;;;;;;5068834;28;20032;-79
2022/06/24 05:10:08;;;;;;;3.97;0.73;;;24.10;43.60;;;;;;5067265;28;20020;-80
2022/06/24 05:12:34;;;;;;;7.03;0.98;;;24.30;43.60;;;;;;5068146;28;20024;-80
2022/06/24 05:15:00;;;;;;;2.15;0.90;;;24.40;43.60;;;;;;5068617;28;20026;-80
2022/06/24 05:17:29;;;;;;;2.03;0.88;;;24.70;43.50;;;;;;5067079;28;20043;-80
2022/06/24 05:19:54;;;;;;;3.78;0.98;;;24.80;42.40;;;;;;5067023;28;20077;-80
2022/06/24 05:22:20;;;;;;;3.83;1.00;;;24.80;41.40;;;;;;5068405;28;20028;-78
2022/06/24 05:24:46;;;;;;;6.13;1.05;;;24.90;41.70;;;;;;5066700;28;20454;-80
2022/06/24 05:27:11;;;;;;;7.40;0.90;;;24.90;42.00;;;;;;5067228;28;20032;-80
2022/06/24 05:29:37;;;;;;;4.65;0.85;;;24.90;41.30;;;;;;5067043;28;20115;-80
2022/06/24 05:32:04;;;;;;;4.10;1.23;;;25.00;41.70;;;;;;5066283;28;20021;-79
2022/06/24 05:34:29;;;;;;;1.80;0.95;;;25.10;41.30;;;;;;5066098;28;20055;-80
2022/06/24 05:36:55;;;;;;;3.08;1.02;;;25.20;40.70;;;;;;5049967;28;20028;-80
2022/06/24 05:39:21;;;;;;;3.70;0.82;;;25.20;40.40;;;;;;5066891;28;20036;-80
2022/06/24 05:41:47;;;;;;;10.43;0.98;;;25.20;40.50;;;;;;5067005;28;20025;-80
2022/06/24 05:44:12;;;;;;;6.55;0.90;;;25.30;40.20;;;;;;5066576;28;20094;-81
2022/06/24 05:46:38;;;;;;;2.15;1.02;;;25.50;40.80;;;;;;5067388;28;20232;-80
2022/06/24 05:49:04;;;;;;;4.80;0.80;;;25.70;39.80;;;;;;5066089;28;20033;-80
2022/06/24 05:51:30;;;;;;;2.05;0.80;;;26.20;39.00;;;;;;5066336;28;20036;-80
2022/06/24 05:56:40;;;;;;;2.78;0.93;;;26.90;37.90;;;;;;5067103;28;20036;-81
2022/06/24 05:59:07;;;;;;;3.28;1.33;;;28.30;36.50;;;;;;5066440;28;20501;-81
2022/06/24 06:01:32;;;;;;;3.03;1.00;;;29.50;34.70;;;;;;5067891;28;20032;-79
2022/06/24 06:03:59;;;;;;;3.30;0.93;;;30.60;32.90;;;;;;5067123;28;20024;-80
2022/06/24 06:06:24;;;;;;;9.85;1.73;;;31.80;31.30;;;;;;5065672;28;20032;-80
2022/06/24 06:08:50;;;;;;;3.40;1.15;;;33.20;29.90;;;;;;5067496;28;20481;-80
2022/06/24 06:11:21;;;;;;;1.42;0.93;;;34.10;28.60;;;;;;5067170;28;20511;-79
2022/06/24 06:13:49;;;;;;;10.35;1.23;;;34.40;28.30;;;;;;5065671;28;20032;-79
2022/06/24 06:16:15;;;;;;;1.67;0.98;;;35.20;27.20;;;;;;5066731;28;20055;-79
2022/06/24 06:18:42;;;;;;;2.60;1.10;;;35.70;26.80;;;;;;5066840;28;20215;-80
2022/06/24 06:21:09;;;;;;;9.63;1.20;;;35.50;26.40;;;;;;5066064;28;20037;-78
2022/06/24 06:23:37;;;;;;;2.97;1.27;;;35.50;26.60;;;;;;5066990;28;20120;-79
2022/06/24 06:26:04;;;;;;;2.28;1.02;;;36.10;25.80;;;;;;5067270;28;20028;-80
2022/06/24 06:28:30;;;;;;;4.13;0.95;;;36.40;26.20;;;;;;5065507;28;20212;-79
2022/06/24 06:30:56;;;;;;;7.70;1.00;;;36.80;25.40;;;;;;5066567;28;20106;-79
2022/06/24 06:33:21;;;;;;;2.30;0.93;;;37.20;24.60;;;;;;5066193;28;20072;-79
2022/06/24 06:35:47;;;;;;;1.85;0.90;;;36.60;24.70;;;;;;5065322;28;20027;-80
2022/06/24 06:38:13;;;;;;;3.53;1.10;;;36.80;24.70;;;;;;5065555;28;20036;-79
2022/06/24 06:40:39;;;;;;;1.88;0.90;;;36.90;24.80;;;;;;5065101;28;20037;-79
2022/06/24 06:43:06;;;;;;;5.50;1.00;;;36.80;24.40;;;;;;5065660;28;20035;-78
2022/06/24 06:45:36;;;;;;;3.35;0.90;;;36.80;24.80;;;;;;5048900;28;20024;-80
2022/06/24 06:48:03;;;;;;;5.32;0.93;;;37.20;24.10;;;;;;5066315;28;20123;-79
2022/06/24 06:50:29;;;;;;;2.70;1.02;;;36.80;24.40;;;;;;5066764;28;20111;-78
2022/06/24 06:52:54;;;;;;;8.93;1.40;;;36.40;24.40;;;;;;5066681;28;20104;-80
2022/06/24 06:55:20;;;;;;;3.83;1.00;;;36.50;24.20;;;;;;5066716;28;20023;-79
2022/06/24 06:57:46;;;;;;;2.10;0.73;;;36.50;24.50;;;;;;5066912;28;20520;-81
2022/06/24 07:00:13;;;;;;;6.35;1.30;;;36.40;24.30;;;;;;5066810;28;20491;-80
2022/06/24 07:02:39;;;;;;;2.28;1.20;;;36.10;24.00;;;;;;5066203;28;20024;-81
2022/06/24 07:05:05;;;;;;;3.88;1.02;;;36.10;23.80;;;;;;5066057;28;20059;-80
2022/06/24 07:07:31;;;;;;;0.98;0.73;;;35.90;23.40;;;;;;5066504;28;20064;-80
2022/06/24 07:09:57;;;;;;;2.25;0.90;;;35.90;24.10;;;;;;5064679;28;20448;-80
2022/06/24 07:12:23;;;;;;;1.90;0.90;;;36.00;24.10;;;;;;5048858;28;20060;-80
2022/06/24 07:14:49;;;;;;;2.28;0.93;;;36.40;23.80;;;;;;5065911;28;20059;-80
2022/06/24 07:17:16;;;;;;;1.60;1.10;;;36.10;24.00;;;;;;5048042;28;20064;-79
2022/06/24 07:19:42;;;;;;;7.55;1.00;;;35.60;24.80;;;;;;5066205;28;20032;-80
2022/06/24 07:22:08;;;;;;;1.48;0.93;;;35.40;24.70;;;;;;5066131;28;20036;-79
2022/06/24 07:24:34;;;;;;;4.68;0.95;;;35.80;24.40;;;;;;5066235;28;20072;-80
2022/06/24 07:27:07;;;;;;;1.40;0.70;;;36.20;24.30;;;;;;5066509;28;20067;-80
2022/06/24 07:29:34;;;;;;;4.43;1.20;;;36.30;23.70;;;;;;5066454;28;20060;-82
2022/06/24 07:32:01;;;;;;;3.00;0.98;;;36.40;23.90;;;;;;5065767;28;20025;-80
2022/06/24 07:34:26;;;;;;;1.42;1.05;;;36.30;23.50;;;;;;5066118;28;20048;-80
2022/06/24 07:36:53;;;;;;;3.90;0.90;;;36.20;23.70;;;;;;5066330;28;20447;-80
2022/06/24 07:39:19;;;;;;;8.48;1.42;;;36.40;23.80;;;;;;5065038;28;20516;-79
2022/06/24 07:41:44;;;;;;;1.55;0.80;;;36.90;23.40;;;;;;5065127;28;20029;-79
2022/06/24 07:44:10;;;;;;;1.67;0.80;;;36.80;23.80;;;;;;5065173;28;20037;-79
2022/06/24 07:46:36;;;;;;;3.58;1.00;;;36.60;23.60;;;;;;5066131;28;20067;-80
2022/06/24 07:49:01;;;;;;;1.95;1.00;;;36.70;23.20;;;;;;5064792;28;20052;-80
2022/06/24 07:51:27;;;;;;;1.08;0.70;;;36.70;23.40;;;;;;5064808;28;20493;-79
2022/06/24 07:53:53;;;;;;;4.85;1.52;;;36.90;23.60;;;;;;5065853;28;20067;-80
2022/06/24 07:59:04;;;;;;;4.32;1.05;;;36.40;23.80;;;;;;5066203;28;20113;-78
2022/06/24 08:01:29;;;;;;;2.47;1.05;;;36.90;23.80;;;;;;5064233;28;20480;-79
2022/06/24 08:03:55;;;;;;;4.38;1.02;;;37.10;23.20;;;;;;5066775;28;20094;-80
2022/06/24 08:06:21;;;;;;;3.83;1.45;;;36.90;23.80;;;;;;5068870;28;20798;-77
2022/06/24 08:08:47;;;;;;;2.20;0.70;;;36.40;24.20;;;;;;5068466;28;20494;-79
2022/06/24 08:11:12;;;;;;;1.38;0.80;;;36.60;24.00;;;;;;5069851;28;20024;-79
2022/06/24 08:13:39;;;;;;;2.95;0.90;;;36.50;24.20;;;;;;5068550;28;20135;-80
2022/06/24 08:16:05;;;;;;;1.70;0.90;;;36.20;23.90;;;;;;5067504;28;20029;-80
2022/06/24 08:18:31;;;;;;;2.25;0.90;;;36.30;24.20;;;;;;5069701;28;20054;-79
2022/06/24 08:20:56;;;;;;;2.25;0.93;;;36.20;24.40;;;;;;5067201;28;20520;-80
2022/06/24 08:23:22;;;;;;;1.98;1.00;;;36.50;24.80;;;;;;5069256;28;20488;-80
2022/06/24 08:25:48;;;;;;;6.82;1.35;;;36.70;24.20;;;;;;5069602;28;20485;-79
2022/06/24 08:28:14;;;;;;;1.13;1.00;;;36.90;24.10;;;;;;5070029;28;20024;-80
2022/06/24 08:30:39;;;;;;;5.10;1.55;;;37.50;24.00;;;;;;5068598;28;20374;-80
2022/06/24 08:33:05;;;;;;;8.55;1.15;;;37.50;23.90;;;;;;5069015;28;20025;-80
2022/06/24 08:35:31;;;;;;;5.60;1.20;;;37.60;23.60;;;;;;5067644;28;20577;-80
2022/06/24 08:37:58;;;;;;;3.08;0.98;;;37.00;23.90;;;;;;5069223;28;20021;-78
2022/06/24 08:40:25;;;;;;;3.50;0.70;;;36.60;24.00;;;;;;5068589;28;20033;-79
2022/06/24 08:42:56;;;;;;;1.98;1.08;;;36.70;24.50;;;;;;5068851;28;20074;-79
2022/06/24 08:45:22;;;;;;;5.20;0.98;;;36.70;24.00;;;;;;5067454;28;20032;-80
2022/06/24 08:47:49;;;;;;;3.38;1.23;;;37.00;24.30;;;;;;5069212;28;20036;-80
2022/06/24 08:50:15;;;;;;;5.78;1.40;;;37.20;24.30;;;;;;5067567;28;20029;-80
2022/06/24 08:52:47;;;;;;;3.08;0.95;;;37.30;24.60;;;;;;5068945;28;20016;-80
2022/06/24 08:55:17;;;;;;;8.50;1.00;;;37.60;24.40;;;;;;5050287;28;20029;-79
2022/06/24 08:57:43;;;;;;;2.13;1.17;;;36.70;24.00;;;;;;5096056;28;20574;-80
2022/06/24 09:00:09;;;;;;;4.28;1.15;;;36.50;24.90;;;;;;5072708;28;20028;-79
2022/06/24 09:02:35;;;;;;;3.95;1.08;;;36.90;24.60;;;;;;5086368;28;20104;-79
2022/06/24 09:05:10;;;;;;;16.73;1.33;;;36.70;24.60;;;;;;5082522;28;20504;-79
2022/06/24 09:07:36;;;;;;;3.45;1.40;;;36.80;25.10;;;;;;5075365;28;20590;-78
2022/06/24 09:10:12;;;;;;;3.60;1.20;;;36.90;24.90;;;;;;5086994;28;20107;-78
2022/06/24 09:12:46;;;;;;;10.35;1.30;;;37.20;25.00;;;;;;5069104;28;20571;-79
2022/06/24 09:15:13;;;;;;;4.30;1.33;;;37.40;24.70;;;;;;5083765;28;20089;-79
2022/06/24 09:17:40;;;;;;;3.75;0.93;;;37.50;24.70;;;;;;5086661;28;20109;-80
2022/06/24 09:20:19;;;;;;;9.77;1.25;;;37.80;24.30;;;;;;5087869;28;20047;-79
2022/06/24 09:22:45;;;;;;;5.20;1.30;;;37.70;24.40;;;;;;5086965;28;20043;-79
2022/06/24 09:25:11;;;;;;;2.15;0.80;;;37.00;24.70;;;;;;5070871;28;20039;-80
2022/06/24 09:27:43;;;;;;;6.32;1.10;;;37.00;24.90;;;;;;5087764;28;20111;-79
2022/06/24 09:30:10;;;;;;;4.40;1.02;;;36.80;24.80;;;;;;5079733;28;20093;-79
2022/06/24 09:32:53;;;;;;;3.03;1.25;;;36.60;25.20;;;;;;5081796;28;20117;-79
2022/06/24 09:35:21;;;;;;;6.00;1.40;;;36.80;25.30;;;;;;5084688;28;20083;-78
2022/06/24 09:37:49;;;;;;;5.30;1.35;;;37.20;25.10;;;;;;5068406;28;20094;-79
2022/06/24 09:40:20;;;;;;;6.72;1.17;;;37.70;24.70;;;;;;5081766;28;20042;-79
2022/06/24 09:43:04;;;;;;;9.98;1.65;;;37.90;24.70;;;;;;5069943;28;20186;-79
2022/06/24 09:45:49;;;;;;;3.95;1.10;;;38.10;24.40;;;;;;5086825;28;20130;-80
2022/06/24 09:48:33;;;;;;;3.10;1.67;;;38.20;24.20;;;;;;5085689;28;20050;-79
2022/06/24 09:51:01;;;;;;;3.15;0.98;;;37.70;24.20;;;;;;5070350;28;20397;-79
2022/06/24 09:53:32;;;;;;;5.05;1.38;;;37.10;24.50;;;;;;5082253;28;20110;-79
2022/06/24 09:55:58;;;;;;;4.30;1.15;;;36.70;24.90;;;;;;5081609;28;20032;-78
2022/06/24 09:58:24;;;;;;;2.67;1.33;;;36.80;25.20;;;;;;5068600;28;20056;-80
2022/06/24 10:00:51;;;;;;;5.47;1.10;;;36.70;24.90;;;;;;5069095;28;20056;-79
2022/06/24 10:03:17;;;;;;;8.23;1.25;;;35.90;25.40;;;;;;5085080;28;20078;-78
2022/06/24 10:05:50;;;;;;;9.55;1.27;;;35.10;25.80;;;;;;5071473;28;20028;-78
2022/06/24 10:08:21;;;;;;;3.75;1.00;;;34.70;26.40;;;;;;5067310;28;20056;-78
2022/06/24 10:10:59;;;;;;;3.80;1.38;;;34.60;26.70;;;;;;5067435;28;20040;-78
2022/06/24 10:13:28;;;;;;;5.38;1.08;;;34.30;27.00;;;;;;5048218;28;20049;-77
2022/06/24 10:16:00;;;;;;;2.38;1.20;;;33.90;27.60;;;;;;5061502;28;20033;-78
2022/06/24 10:18:29;;;;;;;8.77;1.90;;;33.50;27.20;;;;;;5066305;28;20028;-78
2022/06/24 10:21:04;;;;;;;2.78;1.20;;;33.50;27.60;;;;;;5054676;28;20060;-78
2022/06/24 10:23:48;;;;;;;3.33;1.00;;;33.50;27.30;;;;;;5089748;28;20038;-78
2022/06/24 10:26:34;;;;;;;3.67;1.42;;;33.60;27.80;;;;;;5079739;28;20040;-78
2022/06/24 10:29:00;;;;;;;5.03;1.35;;;33.70;27.50;;;;;;5088342;28;20046;-78
2022/06/24 10:31:52;;;;;;;5.15;1.30;;;33.70;27.20;;;;;;5076384;28;20114;-79
2022/06/24 10:34:26;;;;;;;4.22;1.35;;;33.40;27.40;;;;;;5091147;27;20578;-78
2022/06/24 10:37:00;;;;;;;2.20;1.15;;;33.40;27.60;;;;;;5086156;28;20043;-79
2022/06/24 10:39:27;;;;;;;8.07;1.45;;;33.20;27.60;;;;;;5074283;28;20393;-78
2022/06/24 10:42:04;;;;;;;4.53;0.90;;;33.20;27.60;;;;;;5086894;27;20048;-78
2022/06/24 10:44:32;;;;;;;4.80;1.48;;;33.20;27.90;;;;;;5078167;28;20039;-78
2022/06/24 10:47:21;;;;;;;4.70;1.10;;;33.20;27.80;;;;;;5082856;27;20061;-78
2022/06/24 10:49:55;;;;;;;2.83;1.33;;;33.20;28.50;;;;;;5066142;28;20520;-78
2022/06/24 10:52:47;;;;;;;4.70;0.98;;;33.40;28.00;;;;;;5093079;27;20059;-78
2022/06/24 10:55:23;;;;;;;3.55;1.23;;;33.50;27.70;;;;;;5084858;28;20040;-79
2022/06/24 10:57:54;;;;;;;3.58;1.10;;;33.40;27.90;;;;;;5072052;28;20047;-79
2022/06/24 11:00:29;;;;;;;9.88;1.40;;;33.40;27.40;;;;;;5077497;28;20032;-79
2022/06/24 11:03:15;;;;;;;2.77;1.23;;;32.90;28.00;;;;;;5084577;28;20040;-77
2022/06/24 11:05:44;;;;;;;6.70;1.40;;;32.30;28.10;;;;;;5090133;28;20062;-79
2022/06/24 11:08:21;;;;;;;5.43;1.13;;;31.70;28.50;;;;;;5070944;28;20673;-80
2022/06/24 11:10:48;;;;;;;3.28;1.08;;;31.30;29.20;;;;;;5073915;28;20047;-81
2022/06/24 11:13:14;;;;;;;3.67;1.00;;;31.00;29.50;;;;;;5074330;28;20031;-82
2022/06/24 11:15:46;;;;;;;13.13;1.63;;;30.80;29.60;;;;;;5103910;28;20043;-80
2022/06/24 11:18:20;;;;;;;3.40;1.38;;;30.70;29.80;;;;;;5081911;28;20578;-81
2022/06/24 11:20:55;;;;;;;2.85;1.48;;;30.50;29.90;;;;;;5056111;28;20046;-80
2022/06/24 11:23:23;;;;;;;4.70;1.35;;;30.60;30.00;;;;;;5084460;28;20228;-80
2022/06/24 11:26:00;;;;;;;3.38;1.70;;;30.40;29.90;;;;;;5071739;28;20044;-81
2022/06/24 11:28:36;;;;;;;2.92;1.48;;;30.20;29.90;;;;;;5068075;28;20078;-82
2022/06/24 11:31:17;;;;;;;3.42;1.45;;;30.40;30.70;;;;;;5086312;28;20583;-81
2022/06/24 11:33:44;;;;;;;6.00;1.25;;;30.60;30.60;;;;;;5086136;28;20105;-81
2022/06/24 11:36:10;;;;;;;12.57;1.52;;;30.60;30.00;;;;;;5086094;28;20085;-81
2022/06/24 11:38:59;;;;;;;7.43;1.20;;;30.50;29.90;;;;;;5068090;28;20070;-81
2022/06/24 11:41:28;;;;;;;11.68;1.17;;;30.50;30.60;;;;;;5090027;28;20604;-80
2022/06/24 11:43:55;;;;;;;5.38;1.65;;;30.60;30.70;;;;;;5089953;28;20024;-80
2022/06/24 11:46:21;;;;;;;8.65;1.55;;;30.80;30.10;;;;;;5071596;28;20269;-81
2022/06/24 11:48:47;;;;;;;4.57;1.00;;;31.00;30.00;;;;;;5071836;28;20504;-81
2022/06/24 11:51:23;;;;;;;3.95;1.30;;;31.10;29.70;;;;;;5072380;28;20027;-82
2022/06/24 11:54:02;;;;;;;3.45;1.33;;;31.20;29.80;;;;;;5089926;28;20032;-82
2022/06/24 11:56:31;;;;;;;7.22;1.27;;;31.40;29.90;;;;;;5071927;28;20030;-81
2022/06/24 11:58:59;;;;;;;3.72;1.40;;;31.60;29.50;;;;;;5071015;28;20040;-80
2022/06/24 12:01:26;;;;;;;5.97;0.90;;;32.00;29.50;;;;;;5090227;28;20103;-81
2022/06/24 12:03:58;;;;;;;8.90;1.40;;;32.30;29.20;;;;;;5071298;28;20495;-81
2022/06/24 12:06:24;;;;;;;3.40;1.10;;;32.70;29.20;;;;;;5089817;28;20049;-79
2022/06/24 12:08:51;;;;;;;4.72;1.33;;;32.90;28.50;;;;;;5089644;28;20496;-78
2022/06/24 12:11:21;;;;;;;4.30;1.30;;;33.20;28.20;;;;;;5071703;28;20351;-78
2022/06/24 12:13:58;;;;;;;2.05;1.02;;;33.00;27.90;;;;;;5089473;28;20124;-79
2022/06/24 12:16:25;;;;;;;5.13;1.60;;;33.10;28.40;;;;;;5089803;28;20055;-79
2022/06/24 12:18:51;;;;;;;2.70;1.23;;;33.20;28.10;;;;;;5089621;28;20036;-79
2022/06/24 12:21:25;;;;;;;4.13;1.27;;;33.30;28.30;;;;;;5089670;28;20043;-79
2022/06/24 12:23:51;;;;;;;10.98;1.60;;;33.40;27.90;;;;;;5070658;28;20050;-79
2022/06/24 12:26:23;;;;;;;6.57;1.60;;;33.30;27.60;;;;;;5089349;28;20147;-79
2022/06/24 12:29:04;;;;;;;4.97;0.85;;;33.30;27.90;;;;;;5071291;28;20036;-79
2022/06/24 12:31:31;;;;;;;7.60;1.08;;;33.30;28.20;;;;;;5071082;28;20024;-79
2022/06/24 12:33:58;;;;;;;5.45;1.30;;;33.50;27.90;;;;;;5070640;28;20067;-79
2022/06/24 12:36:34;;;;;;;2.10;1.10;;;33.90;27.40;;;;;;5071238;28;20035;-79
2022/06/24 12:39:06;;;;;;;4.85;1.52;;;33.60;26.80;;;;;;5070997;28;20031;-80
2022/06/24 12:41:45;;;;;;;2.67;1.10;;;33.10;27.90;;;;;;5070916;28;20024;-79
2022/06/24 12:44:12;;;;;;;3.22;1.08;;;33.10;28.10;;;;;;5070989;28;20024;-80
2022/06/24 12:52:09;;;;;;;5.30;1.42;;;32.30;28.70;;;;;;5089442;28;20118;-79
2022/06/24 12:54:35;;;;;;;5.25;1.48;;;32.10;28.60;;;;;;5070880;28;20570;-80
2022/06/24 12:57:01;;;;;;;3.47;1.30;;;31.90;29.20;;;;;;5089031;28;20113;-80
2022/06/24 12:59:30;;;;;;;4.43;1.40;;;32.00;29.30;;;;;;5088539;28;20044;-79
2022/06/24 13:01:56;;;;;;;5.97;1.58;;;31.70;29.20;;;;;;5088641;28;20016;-80
2022/06/24 13:04:22;;;;;;;3.22;1.00;;;31.60;29.40;;;;;;5070378;28;20034;-80
2022/06/24 13:06:48;;;;;;;7.63;1.75;;;31.50;29.70;;;;;;5089151;28;20115;-79